createdAt,value
2023-04-11T00:01:24.505Z,-23585.16
2023-04-11T00:03:27.818Z,-23584.53
2023-04-11T00:05:32.184Z,-23583.75
2023-04-11T00:07:34.989Z,-23585.31
2023-04-11T00:09:38.034Z,-23585.16
2023-04-11T00:11:40.792Z,-23582.97
2023-04-11T00:13:45.206Z,-23582.78
2023-04-11T00:15:47.976Z,-23582.63
2023-04-11T00:17:50.871Z,-23582.16
2023-04-11T00:19:53.913Z,-23581.69
2023-04-11T00:21:58.111Z,-23580.75
2023-04-11T00:24:00.817Z,-23581.22
2023-04-11T00:26:03.939Z,-23583.44
2023-04-11T00:28:06.786Z,-23585.97
2023-04-11T00:30:11.711Z,-23585.47
2023-04-11T00:32:14.357Z,-23586.44
2023-04-11T00:34:18.334Z,-23591.66
2023-04-11T00:36:21.287Z,-23591.34
2023-04-11T00:38:24.042Z,-23593.22
2023-04-11T00:40:26.809Z,-23595.13
2023-04-11T00:42:29.454Z,-23595.44
2023-04-11T00:44:32.282Z,-23598.44
2023-04-11T00:46:36.851Z,-23601.75
2023-04-11T00:48:39.580Z,-23604.28
2023-04-11T00:50:43.960Z,-23603.03
2023-04-11T00:52:48.950Z,-23600.81
2023-04-11T00:54:52.196Z,-23600.81
2023-04-11T00:56:54.974Z,-23601.59
2023-04-11T00:58:58.229Z,-23601.44
2023-04-11T01:01:02.216Z,-23600.50
2023-04-11T01:03:06.914Z,-23600.34
2023-04-11T01:05:11.015Z,-23599.53
2023-04-11T01:07:15.180Z,-23600.19
2023-04-11T01:09:18.872Z,-23599.38
2023-04-11T01:11:21.805Z,-23600.81
2023-04-11T01:13:24.972Z,-23599.53
2023-04-11T01:15:27.924Z,-23601.44
2023-04-11T01:17:32.373Z,-23601.91
2023-04-11T01:19:36.418Z,-23600.50
2023-04-11T01:21:39.299Z,-23600.81
2023-04-11T01:23:43.484Z,-23600.50
2023-04-11T01:25:46.116Z,-23599.84
2023-04-11T01:27:49.370Z,-23597.97
2023-04-11T01:29:52.131Z,-23599.22
2023-04-11T01:31:55.563Z,-23599.06
2023-04-11T01:33:58.438Z,-23597.00
2023-04-11T01:36:01.262Z,-23598.91
2023-04-11T01:38:04.438Z,-23593.22
2023-04-11T01:40:10.611Z,-23587.69
2023-04-11T01:42:14.794Z,-23583.91
2023-04-11T01:44:17.917Z,-23578.69
2023-04-11T01:46:20.907Z,-23581.22
2023-04-11T01:48:23.736Z,-23580.44
2023-04-11T01:50:26.538Z,-23576.78
2023-04-11T01:52:29.362Z,-23576.47
2023-04-11T01:54:32.060Z,-23571.41
2023-04-11T01:56:36.154Z,-23569.50
2023-04-11T01:58:38.854Z,-23569.84
2023-04-11T02:00:41.700Z,-23568.25
2023-04-11T02:02:44.555Z,-23565.09
2023-04-11T02:04:47.366Z,-23566.50
2023-04-11T02:06:50.165Z,-23563.34
2023-04-11T02:08:53.061Z,-23562.72
2023-04-11T02:10:55.971Z,-23562.09
2023-04-11T02:13:00.052Z,-23557.19
2023-04-11T02:15:02.879Z,-23550.84
2023-04-11T02:17:09.895Z,-23542.94
2023-04-11T02:19:12.671Z,-23538.84
2023-04-11T02:21:15.474Z,-23531.84
2023-04-11T02:23:18.250Z,-23532.19
2023-04-11T02:25:20.981Z,-23524.56
2023-04-11T02:27:23.672Z,-23525.38
2023-04-11T02:29:28.125Z,-23518.88
2023-04-11T02:31:30.998Z,-23518.25
2023-04-11T02:33:33.865Z,-23505.09
2023-04-11T02:35:36.580Z,-23502.09
2023-04-11T02:37:39.298Z,-23499.06
2023-04-11T02:39:42.000Z,-23490.69
2023-04-11T02:41:44.670Z,-23499.25
2023-04-11T02:43:47.632Z,-23489.25
2023-04-11T02:45:56.409Z,-23483.53
2023-04-11T02:48:05.668Z,-23477.38
2023-04-11T02:50:09.806Z,-23478.94
2023-04-11T02:52:12.657Z,-23473.88
2023-04-11T02:54:15.669Z,-23474.19
2023-04-11T02:56:19.809Z,-23477.19
2023-04-11T02:58:25.981Z,-23478.63
2023-04-11T03:00:29.296Z,-23481.16
2023-04-11T03:02:33.538Z,-23482.13
2023-04-11T03:04:36.475Z,-23478.00
2023-04-11T03:06:39.282Z,-23477.69
2023-04-11T03:08:42.045Z,-23475.78
2023-04-11T03:10:44.858Z,-23469.59
2023-04-11T03:12:47.611Z,-23474.03
2023-04-11T03:14:50.384Z,-23467.84
2023-04-11T03:16:53.101Z,-23472.28
2023-04-11T03:18:58.556Z,-23465.00
2023-04-11T03:21:01.676Z,-23468.63
2023-04-11T03:23:04.407Z,-23467.22
2023-04-11T03:25:08.046Z,-23464.84
2023-04-11T03:27:10.820Z,-23466.56
2023-04-11T03:29:13.494Z,-23462.47
2023-04-11T03:31:17.814Z,-23462.31
2023-04-11T03:33:20.501Z,-23454.53
2023-04-11T03:35:24.675Z,-23453.56
2023-04-11T03:37:27.396Z,-23457.22
2023-04-11T03:39:30.044Z,-23452.94
2023-04-11T03:41:32.963Z,-23453.72
2023-04-11T03:43:35.661Z,-23458.81
2023-04-11T03:45:38.386Z,-23458.66
2023-04-11T03:47:41.643Z,-23456.13
2023-04-11T03:49:44.425Z,-23456.13
2023-04-11T03:51:48.819Z,-23457.84
2023-04-11T03:53:52.552Z,-23458.81
2023-04-11T03:55:55.427Z,-23458.19
2023-04-11T03:57:58.124Z,-23461.19
2023-04-11T04:00:00.952Z,-23459.13
2023-04-11T04:02:03.812Z,-23458.03
2023-04-11T04:04:07.739Z,-23453.91
2023-04-11T04:06:10.935Z,-23458.66
2023-04-11T04:08:15.109Z,-23456.44
2023-04-11T04:10:17.951Z,-23451.84
2023-04-11T04:12:21.522Z,-23452.31
2023-04-11T04:14:24.469Z,-23451.84
2023-04-11T04:16:27.143Z,-23451.34
2023-04-11T04:18:29.817Z,-23455.47
2023-04-11T04:20:32.485Z,-23455.47
2023-04-11T04:22:35.236Z,-23450.09
2023-04-11T04:24:39.583Z,-23452.00
2023-04-11T04:26:42.625Z,-23448.50
2023-04-11T04:28:47.360Z,-23454.53
2023-04-11T04:30:54.033Z,-23454.69
2023-04-11T04:32:58.981Z,-23452.00
2023-04-11T04:35:02.354Z,-23444.69
2023-04-11T04:37:05.157Z,-23450.41
2023-04-11T04:39:09.890Z,-23455.16
2023-04-11T04:41:15.829Z,-23450.25
2023-04-11T04:43:23.599Z,-23447.53
2023-04-11T04:45:26.645Z,-23451.19
2023-04-11T04:47:31.468Z,-23443.75
2023-04-11T04:49:34.204Z,-23443.75
2023-04-11T04:51:37.334Z,-23445.00
2023-04-11T04:53:40.042Z,-23446.28
2023-04-11T04:55:42.822Z,-23443.41
2023-04-11T04:57:46.836Z,-23437.41
2023-04-11T04:59:49.523Z,-23440.25
2023-04-11T05:01:53.930Z,-23442.16
2023-04-11T05:04:00.481Z,-23435.47
2023-04-11T05:06:03.623Z,-23434.22
2023-04-11T05:08:06.521Z,-23432.94
2023-04-11T05:10:09.965Z,-23430.88
2023-04-11T05:12:13.750Z,-23431.84
2023-04-11T05:14:17.924Z,-23432.63
2023-04-11T05:16:21.886Z,-23434.53
2023-04-11T05:18:24.611Z,-23432.63
2023-04-11T05:20:29.605Z,-23425.31
2023-04-11T05:22:32.545Z,-23414.53
2023-04-11T05:24:35.226Z,-23415.31
2023-04-11T05:26:37.868Z,-23414.22
2023-04-11T05:28:41.441Z,-23412.63
2023-04-11T05:30:45.614Z,-23409.28
2023-04-11T05:32:48.689Z,-23413.09
2023-04-11T05:34:54.656Z,-23408.81
2023-04-11T05:36:58.718Z,-23412.94
2023-04-11T05:39:01.898Z,-23408.81
2023-04-11T05:41:04.812Z,-23407.69
2023-04-11T05:43:08.367Z,-23410.25
2023-04-11T05:45:11.761Z,-23409.28
2023-04-11T05:47:15.809Z,-23411.66
2023-04-11T05:49:18.508Z,-23412.63
2023-04-11T05:51:21.330Z,-23411.50
2023-04-11T05:53:24.046Z,-23412.31
2023-04-11T05:55:26.907Z,-23409.44
2023-04-11T05:57:29.556Z,-23411.81
2023-04-11T05:59:32.974Z,-23408.81
2023-04-11T06:01:39.711Z,-23406.28
2023-04-11T06:03:44.273Z,-23409.59
2023-04-11T06:05:46.940Z,-23410.41
2023-04-11T06:07:49.754Z,-23403.41
2023-04-11T06:09:52.451Z,-23408.50
2023-04-11T06:11:57.473Z,-23411.34
2023-04-11T06:14:00.293Z,-23410.41
2023-04-11T06:16:03.486Z,-23408.16
2023-04-11T06:18:06.359Z,-23412.94
2023-04-11T06:20:11.398Z,-23413.25
2023-04-11T06:22:14.094Z,-23405.63
2023-04-11T06:24:18.175Z,-23410.41
2023-04-11T06:26:21.054Z,-23409.44
2023-04-11T06:28:23.787Z,-23408.81
2023-04-11T06:30:26.656Z,-23406.09
2023-04-11T06:32:29.957Z,-23409.59
2023-04-11T06:34:32.938Z,-23405.94
2023-04-11T06:36:37.277Z,-23408.16
2023-04-11T06:38:40.592Z,-23407.84
2023-04-11T06:40:43.338Z,-23406.91
2023-04-11T06:42:46.052Z,-23408.16
2023-04-11T06:44:50.327Z,-23410.25
2023-04-11T06:46:53.281Z,-23408.16
2023-04-11T06:48:56.142Z,-23409.13
2023-04-11T06:50:58.940Z,-23411.34
2023-04-11T06:53:03.037Z,-23414.22
2023-04-11T06:55:08.441Z,-23413.72
2023-04-11T06:57:11.292Z,-23408.81
2023-04-11T06:59:14.599Z,-23411.19
2023-04-11T07:01:17.355Z,-23407.84
2023-04-11T07:03:20.375Z,-23408.97
2023-04-11T07:05:23.293Z,-23410.25
2023-04-11T07:07:25.983Z,-23407.22
2023-04-11T07:09:30.299Z,-23412.31
2023-04-11T07:11:33.706Z,-23413.09
2023-04-11T07:13:36.392Z,-23411.97
2023-04-11T07:15:39.129Z,-23418.34
2023-04-11T07:17:41.876Z,-23417.06
2023-04-11T07:19:44.653Z,-23418.66
2023-04-11T07:21:48.770Z,-23414.69
2023-04-11T07:23:52.641Z,-23420.72
2023-04-11T07:25:56.739Z,-23423.72
2023-04-11T07:28:00.211Z,-23422.94
2023-04-11T07:30:02.948Z,-23422.78
2023-04-11T07:32:06.384Z,-23421.50
2023-04-11T07:34:09.136Z,-23427.84
2023-04-11T07:36:12.203Z,-23428.81
2023-04-11T07:38:15.641Z,-23425.47
2023-04-11T07:40:18.841Z,-23429.78
2023-04-11T07:42:22.899Z,-23423.41
2023-04-11T07:44:27.210Z,-23429.94
2023-04-11T07:46:30.058Z,-23428.03
2023-04-11T07:48:32.956Z,-23437.72
2023-04-11T07:50:35.686Z,-23451.19
2023-04-11T07:52:38.450Z,-23476.41
2023-04-11T07:54:41.140Z,-23462.94
2023-04-11T07:56:43.944Z,-23466.44
2023-04-11T07:58:48.149Z,-23492.59
2023-04-11T08:00:51.156Z,-23500.50
2023-04-11T08:02:54.151Z,-23508.59
2023-04-11T08:04:57.401Z,-23504.31
2023-04-11T08:07:00.519Z,-23499.72
2023-04-11T08:09:04.067Z,-23519.66
2023-04-11T08:11:07.181Z,-23500.50
2023-04-11T08:13:09.903Z,-23507.16
2023-04-11T08:15:14.118Z,-23499.88
2023-04-11T08:17:27.068Z,-23485.28
2023-04-11T08:19:31.162Z,-23481.97
2023-04-11T08:21:33.870Z,-23504.31
2023-04-11T08:23:37.487Z,-23510.66
2023-04-11T08:25:40.254Z,-23497.03
2023-04-11T08:27:43.097Z,-23483.38
2023-04-11T08:29:45.859Z,-23479.91
2023-04-11T08:31:49.948Z,-23484.19
2023-04-11T08:33:52.749Z,-23471.34
2023-04-11T08:35:55.510Z,-23484.66
2023-04-11T08:37:58.322Z,-23481.16
2023-04-11T08:40:01.164Z,-23498.28
2023-04-11T08:42:04.919Z,-23507.94
2023-04-11T08:44:12.799Z,-23497.34
2023-04-11T08:46:18.350Z,-23498.75
2023-04-11T08:48:25.486Z,-23507.63
2023-04-11T08:50:28.277Z,-23498.94
2023-04-11T08:52:32.229Z,-23503.03
2023-04-11T08:54:34.880Z,-23504.31
2023-04-11T08:56:37.651Z,-23513.03
2023-04-11T08:58:42.436Z,-23510.00
2023-04-11T09:00:46.404Z,-23504.63
2023-04-11T09:02:57.022Z,-23505.56
2023-04-11T09:05:01.147Z,-23535.03
2023-04-11T09:07:05.450Z,-23534.56
2023-04-11T09:09:08.231Z,-23541.03
2023-04-11T09:11:10.968Z,-23560.81
2023-04-11T09:13:22.236Z,-23550.84
2023-04-11T09:15:27.710Z,-23572.34
2023-04-11T09:17:42.375Z,-23575.84
2023-04-11T09:19:48.350Z,-23575.69
2023-04-11T09:21:53.972Z,-23542.31
2023-04-11T09:24:14.326Z,-23554.50
2023-04-11T09:26:28.586Z,-23567.16
2023-04-11T09:28:41.663Z,-23548.63
2023-04-11T09:30:50.117Z,-23543.88
2023-04-11T09:32:54.241Z,-23552.44
2023-04-11T09:35:10.262Z,-23562.25
2023-04-11T09:37:14.531Z,-23566.03
2023-04-11T09:39:18.803Z,-23547.06
2023-04-11T09:41:31.781Z,-23573.16
2023-04-11T09:43:51.122Z,-23571.09
2023-04-11T09:46:10.687Z,-23577.72
2023-04-11T09:48:14.343Z,-23565.56
2023-04-11T09:50:18.254Z,-23562.72
2023-04-11T09:52:23.112Z,-23552.91
2023-04-11T09:54:28.287Z,-23556.53
2023-04-11T09:56:34.127Z,-23536.59
2023-04-11T09:58:38.921Z,-23535.66
2023-04-11T10:00:44.944Z,-23535.81
2023-04-11T10:02:53.104Z,-23551.97
2023-04-11T10:04:56.305Z,-23542.63
2023-04-11T10:07:07.133Z,-23550.53
2023-04-11T10:09:13.061Z,-23576.47
2023-04-11T10:11:18.555Z,-23537.25
2023-04-11T10:13:41.699Z,-23551.00
2023-04-11T10:16:08.496Z,-23553.06
2023-04-11T10:18:12.933Z,-23591.66
2023-04-11T10:20:43.770Z,-23591.66
2023-04-11T10:23:02.374Z,-23578.22
2023-04-11T10:25:19.772Z,-23569.66
2023-04-11T10:27:47.190Z,-23550.06
2023-04-11T10:29:52.430Z,-23556.88
2023-04-11T10:32:09.617Z,-23559.41
2023-04-11T10:34:14.241Z,-23543.56
2023-04-11T10:36:17.091Z,-23530.91
2023-04-11T10:38:47.506Z,-23551.81
2023-04-11T10:41:26.490Z,-23538.84
2023-04-11T10:43:29.242Z,-23526.47
2023-04-11T10:45:32.477Z,-23519.66
2023-04-11T10:47:35.266Z,-23545.78
2023-04-11T10:49:39.494Z,-23524.72
2023-04-11T10:51:42.179Z,-23541.03
2023-04-11T10:53:47.250Z,-23556.88
2023-04-11T10:55:51.701Z,-23548.31
2023-04-11T10:58:09.383Z,-23573.16
2023-04-11T11:00:16.374Z,-23564.78
2023-04-11T11:02:21.685Z,-23570.94
2023-04-11T11:04:32.256Z,-23582.16
2023-04-11T11:06:46.244Z,-23543.75
2023-04-11T11:08:49.800Z,-23563.50
2023-04-11T11:10:52.468Z,-23561.44
2023-04-11T11:12:56.142Z,-23550.84
2023-04-11T11:15:00.188Z,-23556.88
2023-04-11T11:17:03.817Z,-23551.47
2023-04-11T11:19:06.756Z,-23542.78
2023-04-11T11:21:14.199Z,-23536.28
2023-04-11T11:23:23.238Z,-23529.47
2023-04-11T11:25:27.144Z,-23537.25
2023-04-11T11:27:29.838Z,-23529.66
2023-04-11T11:29:34.626Z,-23535.19
2023-04-11T11:31:41.646Z,-23545.00
2023-04-11T11:33:44.510Z,-23529.34
2023-04-11T11:35:53.112Z,-23530.44
2023-04-11T11:37:56.320Z,-23551.97
2023-04-11T11:39:59.159Z,-23539.78
2023-04-11T11:42:02.333Z,-23541.84
2023-04-11T11:44:05.713Z,-23558.75
2023-04-11T11:46:15.046Z,-23561.94
2023-04-11T11:48:23.554Z,-23559.06
2023-04-11T11:50:27.935Z,-23559.72
2023-04-11T11:52:34.783Z,-23575.22
2023-04-11T11:54:45.156Z,-23566.34
2023-04-11T11:56:52.478Z,-23566.34
2023-04-11T11:58:55.555Z,-23586.44
2023-04-11T12:00:58.500Z,-23587.53
2023-04-11T12:03:03.468Z,-23581.22
2023-04-11T12:05:08.533Z,-23574.56
2023-04-11T12:07:11.641Z,-23595.44
2023-04-11T12:09:14.329Z,-23601.91
2023-04-11T12:11:18.334Z,-23602.41
2023-04-11T12:13:23.455Z,-23608.69
2023-04-11T12:15:26.551Z,-23603.50
2023-04-11T12:17:35.469Z,-23590.06
2023-04-11T12:19:43.254Z,-23577.91
2023-04-11T12:21:47.370Z,-23574.25
2023-04-11T12:23:50.070Z,-23557.34
2023-04-11T12:25:52.903Z,-23567.94
2023-04-11T12:27:55.828Z,-23576.47
2023-04-11T12:29:58.499Z,-23574.56
2023-04-11T12:32:01.172Z,-23575.03
2023-04-11T12:34:03.995Z,-23571.25
2023-04-11T12:36:07.820Z,-23568.88
2023-04-11T12:38:13.420Z,-23565.56
2023-04-11T12:40:20.233Z,-23573.78
2023-04-11T12:42:26.714Z,-23570.78
2023-04-11T12:44:29.972Z,-23554.66
2023-04-11T12:46:33.618Z,-23563.03
2023-04-11T12:48:36.575Z,-23559.41
2023-04-11T12:50:39.292Z,-23570.00
2023-04-11T12:52:42.147Z,-23572.53
2023-04-11T12:54:46.190Z,-23577.91
2023-04-11T12:56:48.946Z,-23581.84
2023-04-11T12:58:51.685Z,-23579.47
2023-04-11T13:00:54.383Z,-23584.06
2023-04-11T13:02:57.903Z,-23586.91
2023-04-11T13:05:02.552Z,-23587.84
2023-04-11T13:07:05.372Z,-23571.72
2023-04-11T13:09:08.373Z,-23574.88
2023-04-11T13:11:12.410Z,-23582.16
2023-04-11T13:13:18.440Z,-23577.25
2023-04-11T13:15:21.530Z,-23573.63
2023-04-11T13:17:24.429Z,-23577.09
2023-04-11T13:19:27.353Z,-23573.63
2023-04-11T13:21:30.060Z,-23580.75
2023-04-11T13:23:32.747Z,-23582.00
2023-04-11T13:25:35.696Z,-23587.84
2023-04-11T13:27:40.151Z,-23601.13
2023-04-11T13:29:42.877Z,-23595.13
2023-04-11T13:31:45.715Z,-23591.97
2023-04-11T13:33:48.508Z,-23581.22
2023-04-11T13:35:51.206Z,-23589.13
2023-04-11T13:37:53.905Z,-23603.19
2023-04-11T13:39:56.580Z,-23613.75
2023-04-11T13:41:59.282Z,-23593.69
2023-04-11T13:44:03.376Z,-23596.88
2023-04-11T13:46:06.382Z,-23596.69
2023-04-11T13:48:09.252Z,-23579.63
2023-04-11T13:50:12.072Z,-23582.97
2023-04-11T13:52:14.767Z,-23587.22
2023-04-11T13:54:17.682Z,-23587.84
2023-04-11T13:56:20.531Z,-23579.63
2023-04-11T13:58:23.354Z,-23600.81
2023-04-11T14:00:27.584Z,-23606.19
2023-04-11T14:02:30.477Z,-23602.06
2023-04-11T14:04:33.435Z,-23604.28
2023-04-11T14:06:37.555Z,-23605.38
2023-04-11T14:08:40.343Z,-23605.06
2023-04-11T14:10:42.991Z,-23617.38
2023-04-11T14:12:45.635Z,-23618.97
2023-04-11T14:14:48.269Z,-23604.28
2023-04-11T14:16:52.356Z,-23597.97
2023-04-11T14:18:54.982Z,-23606.97
2023-04-11T14:20:58.418Z,-23604.59
2023-04-11T14:23:01.176Z,-23601.44
2023-04-11T14:25:05.377Z,-23596.38
2023-04-11T14:27:08.640Z,-23598.28
2023-04-11T14:29:11.726Z,-23607.13
2023-04-11T14:31:14.749Z,-23603.66
2023-04-11T14:33:18.979Z,-23611.38
2023-04-11T14:35:21.647Z,-23601.44
2023-04-11T14:37:24.392Z,-23587.06
2023-04-11T14:39:27.075Z,-23583.13
2023-04-11T14:41:29.721Z,-23577.56
2023-04-11T14:43:32.491Z,-23588.63
2023-04-11T14:45:35.155Z,-23589.44
2023-04-11T14:47:39.772Z,-23588.00
2023-04-11T14:49:44.141Z,-23584.38
2023-04-11T14:51:46.862Z,-23574.88
2023-04-11T14:53:55.022Z,-23584.06
2023-04-11T14:55:58.038Z,-23585.81
2023-04-11T14:58:00.757Z,-23591.97
2023-04-11T15:00:06.437Z,-23587.22
2023-04-11T15:02:09.209Z,-23575.22
2023-04-11T15:04:12.065Z,-23587.84
2023-04-11T15:06:16.206Z,-23588.00
2023-04-11T15:08:18.935Z,-23587.38
2023-04-11T15:10:23.308Z,-23583.75
2023-04-11T15:12:25.984Z,-23587.38
2023-04-11T15:14:30.309Z,-23584.38
2023-04-11T15:16:33.048Z,-23577.72
2023-04-11T15:18:35.975Z,-23573.94
2023-04-11T15:20:38.806Z,-23579.63
2023-04-11T15:22:45.628Z,-23582.78
2023-04-11T15:24:48.432Z,-23582.31
2023-04-11T15:26:51.220Z,-23578.38
2023-04-11T15:28:53.899Z,-23580.59
2023-04-11T15:30:57.235Z,-23575.84
2023-04-11T15:32:59.982Z,-23575.03
2023-04-11T15:35:03.217Z,-23573.63
2023-04-11T15:37:11.384Z,-23573.47
2023-04-11T15:39:16.215Z,-23569.84
2023-04-11T15:41:19.076Z,-23569.84
2023-04-11T15:43:22.299Z,-23563.19
2023-04-11T15:45:25.070Z,-23563.81
2023-04-11T15:47:27.770Z,-23566.34
2023-04-11T15:49:30.562Z,-23562.88
2023-04-11T15:51:33.271Z,-23568.41
2023-04-11T15:53:36.161Z,-23567.63
2023-04-11T15:55:40.730Z,-23571.41
2023-04-11T15:57:43.500Z,-23565.09
2023-04-11T15:59:46.334Z,-23566.97
2023-04-11T16:01:49.177Z,-23559.41
2023-04-11T16:03:52.978Z,-23556.72
2023-04-11T16:05:55.775Z,-23567.31
2023-04-11T16:07:58.846Z,-23569.03
2023-04-11T16:10:01.586Z,-23570.31
2023-04-11T16:12:05.920Z,-23573.31
2023-04-11T16:14:08.562Z,-23562.88
2023-04-11T16:16:11.311Z,-23558.44
2023-04-11T16:18:14.000Z,-23551.34
2023-04-11T16:20:21.184Z,-23554.50
2023-04-11T16:22:24.225Z,-23550.84
2023-04-11T16:24:29.497Z,-23552.75
2023-04-11T16:26:32.277Z,-23551.97
2023-04-11T16:28:36.397Z,-23544.84
2023-04-11T16:30:39.128Z,-23545.16
2023-04-11T16:32:41.819Z,-23543.88
2023-04-11T16:34:44.647Z,-23545.00
2023-04-11T16:36:47.391Z,-23546.75
2023-04-11T16:38:50.714Z,-23549.13
2023-04-11T16:40:53.367Z,-23551.00
2023-04-11T16:42:56.033Z,-23551.00
2023-04-11T16:45:00.219Z,-23547.06
2023-04-11T16:47:03.529Z,-23541.19
2023-04-11T16:49:06.338Z,-23547.53
2023-04-11T16:51:10.719Z,-23541.19
2023-04-11T16:53:13.360Z,-23542.78
2023-04-11T16:55:16.693Z,-23538.84
2023-04-11T16:57:19.440Z,-23545.47
2023-04-11T16:59:22.950Z,-23537.88
2023-04-11T17:01:27.153Z,-23541.53
2023-04-11T17:03:30.071Z,-23537.88
2023-04-11T17:05:34.132Z,-23540.09
2023-04-11T17:07:36.833Z,-23540.72
2023-04-11T17:09:39.645Z,-23535.97
2023-04-11T17:11:42.296Z,-23538.84
2023-04-11T17:13:45.969Z,-23535.66
2023-04-11T17:15:48.676Z,-23536.44
2023-04-11T17:17:52.685Z,-23532.34
2023-04-11T17:19:55.504Z,-23534.06
2023-04-11T17:21:58.420Z,-23532.81
2023-04-11T17:24:01.198Z,-23533.75
2023-04-11T17:26:04.439Z,-23533.75
2023-04-11T17:28:07.106Z,-23526.31
2023-04-11T17:30:11.917Z,-23526.31
2023-04-11T17:32:14.527Z,-23526.31
2023-04-11T17:34:18.632Z,-23527.44
2023-04-11T17:36:21.340Z,-23524.25
2023-04-11T17:38:24.424Z,-23523.63
2023-04-11T17:40:27.132Z,-23526.00
2023-04-11T17:42:29.932Z,-23525.84
2023-04-11T17:44:32.692Z,-23521.09
2023-04-11T17:46:35.791Z,-23522.69
2023-04-11T17:48:38.620Z,-23522.03
2023-04-11T17:50:46.103Z,-23516.66
2023-04-11T17:52:48.757Z,-23517.63
2023-04-11T17:54:51.428Z,-23515.72
2023-04-11T17:56:54.253Z,-23515.41
2023-04-11T17:58:56.927Z,-23516.03
2023-04-11T18:00:59.632Z,-23513.66
2023-04-11T18:03:03.015Z,-23510.50
2023-04-11T18:05:13.297Z,-23509.53
2023-04-11T18:07:26.875Z,-23508.09
2023-04-11T18:09:31.885Z,-23505.09
2023-04-11T18:11:34.970Z,-23506.69
2023-04-11T18:13:37.661Z,-23505.56
2023-04-11T18:15:40.375Z,-23506.69
2023-04-11T18:17:44.559Z,-23501.94
2023-04-11T18:19:47.241Z,-23501.13
2023-04-11T18:21:50.599Z,-23500.81
2023-04-11T18:23:54.948Z,-23501.94
2023-04-11T18:25:57.917Z,-23498.94
2023-04-11T18:28:00.577Z,-23504.31
2023-04-11T18:30:04.549Z,-23498.28
2023-04-11T18:32:07.236Z,-23496.06
2023-04-11T18:34:10.134Z,-23496.22
2023-04-11T18:36:13.006Z,-23494.50
2023-04-11T18:38:16.323Z,-23491.31
2023-04-11T18:40:20.436Z,-23489.91
2023-04-11T18:42:23.139Z,-23489.72
2023-04-11T18:44:25.858Z,-23489.56
2023-04-11T18:46:28.543Z,-23490.22
2023-04-11T18:48:31.871Z,-23488.78
2023-04-11T18:50:38.648Z,-23486.56
2023-04-11T18:52:42.395Z,-23483.84
2023-04-11T18:54:45.926Z,-23484.66
2023-04-11T18:56:53.215Z,-23483.06
2023-04-11T18:59:03.491Z,-23478.78
2023-04-11T19:01:15.466Z,-23480.22
2023-04-11T19:03:20.297Z,-23479.09
2023-04-11T19:05:25.555Z,-23480.84
2023-04-11T19:07:28.685Z,-23481.47
2023-04-11T19:09:32.150Z,-23480.53
2023-04-11T19:11:38.045Z,-23481.16
2023-04-11T19:13:42.140Z,-23477.03
2023-04-11T19:15:44.968Z,-23478.00
2023-04-11T19:17:47.868Z,-23478.31
2023-04-11T19:19:51.343Z,-23479.25
2023-04-11T19:21:53.989Z,-23476.41
2023-04-11T19:23:57.630Z,-23477.38
2023-04-11T19:26:00.774Z,-23480.38
2023-04-11T19:28:03.477Z,-23477.69
2023-04-11T19:30:10.111Z,-23477.19
2023-04-11T19:32:12.770Z,-23477.03
2023-04-11T19:34:15.968Z,-23479.59
2023-04-11T19:36:18.813Z,-23479.25
2023-04-11T19:38:22.261Z,-23477.19
2023-04-11T19:40:25.040Z,-23475.78
2023-04-11T19:42:30.538Z,-23474.97
2023-04-11T19:44:33.336Z,-23477.03
2023-04-11T19:46:37.383Z,-23476.25
2023-04-11T19:48:41.394Z,-23473.72
2023-04-11T19:50:44.395Z,-23473.88
2023-04-11T19:52:47.319Z,-23471.66
2023-04-11T19:54:49.986Z,-23473.25
2023-04-11T19:56:53.523Z,-23472.13
2023-04-11T19:58:56.660Z,-23470.69
2023-04-11T20:00:59.638Z,-23469.75
2023-04-11T20:03:05.806Z,-23466.09
2023-04-11T20:05:09.761Z,-23468.63
2023-04-11T20:07:12.704Z,-23467.84
2023-04-11T20:09:15.994Z,-23468.31
2023-04-11T20:11:21.232Z,-23467.84
2023-04-11T20:13:23.993Z,-23467.38
2023-04-11T20:15:27.061Z,-23469.13
2023-04-11T20:17:29.919Z,-23466.25
2023-04-11T20:19:37.836Z,-23464.53
2023-04-11T20:21:40.941Z,-23465.31
2023-04-11T20:23:43.671Z,-23465.31
2023-04-11T20:25:46.458Z,-23465.00
2023-04-11T20:27:49.160Z,-23465.78
2023-04-11T20:29:51.814Z,-23462.13
2023-04-11T20:31:54.574Z,-23464.38
2023-04-11T20:33:57.958Z,-23463.41
2023-04-11T20:36:03.294Z,-23464.69
2023-04-11T20:38:06.312Z,-23466.75
2023-04-11T20:40:10.781Z,-23462.31
2023-04-11T20:42:13.742Z,-23464.53
2023-04-11T20:44:19.094Z,-23459.91
2023-04-11T20:46:22.781Z,-23460.56
2023-04-11T20:48:25.802Z,-23459.59
2023-04-11T20:50:33.287Z,-23458.97
2023-04-11T20:52:38.551Z,-23459.28
2023-04-11T20:54:41.649Z,-23464.03
2023-04-11T20:56:44.924Z,-23462.94
2023-04-11T20:58:47.642Z,-23460.88
2023-04-11T21:00:50.348Z,-23462.13
2023-04-11T21:02:53.692Z,-23458.19
2023-04-11T21:04:56.657Z,-23457.06
2023-04-11T21:06:59.350Z,-23456.91
2023-04-11T21:09:04.317Z,-23458.81
2023-04-11T21:11:07.091Z,-23456.75
2023-04-11T21:13:09.780Z,-23456.91
2023-04-11T21:15:12.884Z,-23457.38
2023-04-11T21:17:15.610Z,-23454.38
2023-04-11T21:19:18.278Z,-23447.88
2023-04-11T21:21:21.070Z,-23442.63
2023-04-11T21:23:23.845Z,-23445.66
2023-04-11T21:25:27.851Z,-23449.59
2023-04-11T21:27:30.731Z,-23447.53
2023-04-11T21:29:33.538Z,-23450.09
2023-04-11T21:31:36.188Z,-23451.03
2023-04-11T21:33:38.942Z,-23457.06
2023-04-11T21:35:41.866Z,-23453.25
2023-04-11T21:37:46.003Z,-23453.09
2023-04-11T21:39:50.479Z,-23452.16
2023-04-11T21:41:54.525Z,-23454.84
2023-04-11T21:43:57.332Z,-23457.06
2023-04-11T21:46:00.257Z,-23459.28
2023-04-11T21:48:03.066Z,-23452.94
2023-04-11T21:50:06.584Z,-23454.22
2023-04-11T21:52:09.593Z,-23451.66
2023-04-11T21:54:12.295Z,-23451.03
2023-04-11T21:56:15.048Z,-23446.13
2023-04-11T21:58:29.197Z,-23446.91
2023-04-11T22:00:32.603Z,-23445.00
2023-04-11T22:02:36.478Z,-23443.41
2023-04-11T22:04:51.176Z,-23447.88
2023-04-11T22:06:59.366Z,-23445.47
2023-04-11T22:09:03.321Z,-23444.38
2023-04-11T22:11:10.121Z,-23446.91
2023-04-11T22:13:14.713Z,-23446.91
2023-04-11T22:15:19.124Z,-23447.53
2023-04-11T22:17:22.163Z,-23447.53
2023-04-11T22:19:25.193Z,-23446.75
2023-04-11T22:21:31.968Z,-23447.53
2023-04-11T22:23:35.937Z,-23444.84
2023-04-11T22:25:38.737Z,-23448.34
2023-04-11T22:27:41.486Z,-23443.91
2023-04-11T22:29:45.574Z,-23439.94
2023-04-11T22:31:50.397Z,-23440.56
2023-04-11T22:33:53.237Z,-23435.81
2023-04-11T22:35:58.324Z,-23440.72
2023-04-11T22:38:01.229Z,-23441.34
2023-04-11T22:40:06.141Z,-23442.00
2023-04-11T22:42:08.783Z,-23440.56
2023-04-11T22:44:11.455Z,-23441.69
2023-04-11T22:46:14.150Z,-23442.47
2023-04-11T22:48:18.172Z,-23441.19
2023-04-11T22:50:21.636Z,-23435.97
2023-04-11T22:52:26.301Z,-23435.34
2023-04-11T22:54:29.574Z,-23432.94
2023-04-11T22:56:32.217Z,-23434.53
2023-04-11T22:58:34.900Z,-23434.38
2023-04-11T23:00:38.527Z,-23430.56
2023-04-11T23:02:41.368Z,-23433.91
2023-04-11T23:04:45.602Z,-23430.72
2023-04-11T23:06:49.784Z,-23429.13
2023-04-11T23:08:53.923Z,-23429.28
2023-04-11T23:10:56.602Z,-23427.84
2023-04-11T23:12:59.328Z,-23429.78
2023-04-11T23:15:02.467Z,-23430.72
2023-04-11T23:17:05.276Z,-23432.94
2023-04-11T23:19:08.710Z,-23439.47
2023-04-11T23:21:14.375Z,-23441.53
2023-04-11T23:23:17.623Z,-23440.56
2023-04-11T23:25:20.336Z,-23431.34
2023-04-11T23:27:23.490Z,-23421.81
2023-04-11T23:29:27.226Z,-23427.06
2023-04-11T23:31:30.063Z,-23426.28
2023-04-11T23:33:32.753Z,-23420.56
2023-04-11T23:35:35.617Z,-23423.56
2023-04-11T23:37:40.801Z,-23422.47